Terminal Aerodrome Forecast
Issued by NWS

Current Version | Previous Version | Text Only | Print | Product List | Glossary On
Versions: 1 2 3 4 5 6 7 8 9 10 11 12 13 14 15 16 17 18 19 20 21 22 23
000
FTUS43 KICT 080520
TAFHUT
TAF
KHUT 080520Z 0806/0906 09008KT P6SM SCT015 OVC100
     FM080900 03011KT 5SM -DZ VCSH SCT009 OVC015
     FM081500 02010KT P6SM SCT015 OVC025
     FM090200 14012KT P6SM BKN015=

USA.gov is the U.S. government's official web portal to all federal, state and local government web resources and services.